sensor_id;sensor_type;location;lat;lon;timestamp;pressure;altitude;pressure_sealevel;temperature;humidity
64610;BME280;51019;46.090;6.350;2023-11-21T00:00:16;96338.13;;;8.97;100.00
64610;BME280;51019;46.090;6.350;2023-11-21T00:02:44;96327.94;;;9.14;100.00
64610;BME280;51019;46.090;6.350;2023-11-21T00:05:13;96327.66;;;9.07;100.00
64610;BME280;51019;46.090;6.350;2023-11-21T00:07:42;96291.47;;;8.93;100.00
64610;BME280;51019;46.090;6.350;2023-11-21T00:10:10;96321.34;;;9.09;100.00
64610;BME280;51019;46.090;6.350;2023-11-21T00:12:39;96314.72;;;8.96;100.00
64610;BME280;51019;46.090;6.350;2023-11-21T00:15:10;96315.00;;;8.93;100.00
64610;BME280;51019;46.090;6.350;2023-11-21T00:17:38;96308.66;;;9.05;100.00
64610;BME280;51019;46.090;6.350;2023-11-21T00:20:08;96311.16;;;9.06;100.00
64610;BME280;51019;46.090;6.350;2023-11-21T00:22:38;96303.84;;;9.10;100.00
64610;BME280;51019;46.090;6.350;2023-11-21T00:25:07;96299.88;;;9.25;100.00
64610;BME280;51019;46.090;6.350;2023-11-21T00:27:34;96295.72;;;9.03;100.00
64610;BME280;51019;46.090;6.350;2023-11-21T00:30:03;96300.81;;;8.95;100.00
64610;BME280;51019;46.090;6.350;2023-11-21T00:32:36;96285.69;;;8.99;100.00
64610;BME280;51019;46.090;6.350;2023-11-21T00:35:05;96299.72;;;9.07;100.00
64610;BME280;51019;46.090;6.350;2023-11-21T00:37:32;96298.50;;;8.83;100.00
64610;BME280;51019;46.090;6.350;2023-11-21T00:40:00;96304.28;;;8.86;100.00
64610;BME280;51019;46.090;6.350;2023-11-21T00:42:30;96238.09;;;8.47;100.00
64610;BME280;51019;46.090;6.350;2023-11-21T00:44:59;96311.69;;;8.81;100.00
64610;BME280;51019;46.090;6.350;2023-11-21T00:47:29;96290.25;;;8.87;100.00
64610;BME280;51019;46.090;6.350;2023-11-21T00:49:58;96297.00;;;8.90;100.00
64610;BME280;51019;46.090;6.350;2023-11-21T00:52:25;96288.47;;;8.88;100.00
64610;BME280;51019;46.090;6.350;2023-11-21T00:54:52;96292.28;;;9.03;100.00
64610;BME280;51019;46.090;6.350;2023-11-21T00:57:20;96298.63;;;9.10;100.00
64610;BME280;51019;46.090;6.350;2023-11-21T00:59:47;96270.16;;;8.97;100.00
64610;BME280;51019;46.090;6.350;2023-11-21T01:02:15;96258.91;;;8.68;100.00
64610;BME280;51019;46.090;6.350;2023-11-21T01:04:42;96269.59;;;8.84;100.00
64610;BME280;51019;46.090;6.350;2023-11-21T01:07:13;96290.13;;;8.79;100.00
64610;BME280;51019;46.090;6.350;2023-11-21T01:09:42;96286.38;;;8.72;100.00
64610;BME280;51019;46.090;6.350;2023-11-21T01:12:10;96203.31;;;8.37;100.00
64610;BME280;51019;46.090;6.350;2023-11-21T01:14:37;96283.50;;;8.85;100.00
64610;BME280;51019;46.090;6.350;2023-11-21T01:17:04;96288.59;;;8.86;100.00
64610;BME280;51019;46.090;6.350;2023-11-21T01:19:32;96286.09;;;8.94;100.00
64610;BME280;51019;46.090;6.350;2023-11-21T01:21:59;96293.53;;;8.99;100.00
64610;BME280;51019;46.090;6.350;2023-11-21T01:24:29;96287.19;;;8.92;100.00
64610;BME280;51019;46.090;6.350;2023-11-21T01:26:57;96291.63;;;9.10;100.00
64610;BME280;51019;46.090;6.350;2023-11-21T01:29:24;96296.16;;;8.99;100.00
64610;BME280;51019;46.090;6.350;2023-11-21T01:31:51;96293.25;;;8.92;100.00
64610;BME280;51019;46.090;6.350;2023-11-21T01:34:18;96278.41;;;8.73;100.00
64610;BME280;51019;46.090;6.350;2023-11-21T01:36:47;96273.47;;;8.80;100.00
64610;BME280;51019;46.090;6.350;2023-11-21T01:39:14;96277.06;;;8.79;100.00
64610;BME280;51019;46.090;6.350;2023-11-21T01:41:51;96270.13;;;8.49;100.00
64610;BME280;51019;46.090;6.350;2023-11-21T01:44:20;96267.00;;;8.74;100.00
64610;BME280;51019;46.090;6.350;2023-11-21T01:46:48;96259.00;;;8.37;100.00
64610;BME280;51019;46.090;6.350;2023-11-21T01:49:16;96259.69;;;8.40;100.00
64610;BME280;51019;46.090;6.350;2023-11-21T01:51:48;96250.75;;;8.52;100.00
64610;BME280;51019;46.090;6.350;2023-11-21T01:54:17;96249.13;;;8.51;100.00
64610;BME280;51019;46.090;6.350;2023-11-21T01:56:46;96251.47;;;8.63;100.00
64610;BME280;51019;46.090;6.350;2023-11-21T01:59:20;96248.63;;;8.17;100.00
64610;BME280;51019;46.090;6.350;2023-11-21T02:01:49;96258.72;;;8.41;100.00
64610;BME280;51019;46.090;6.350;2023-11-21T02:04:18;96229.00;;;8.22;100.00
64610;BME280;51019;46.090;6.350;2023-11-21T02:06:45;96254.69;;;8.27;100.00
64610;BME280;51019;46.090;6.350;2023-11-21T02:09:12;96245.75;;;8.20;100.00
64610;BME280;51019;46.090;6.350;2023-11-21T02:11:41;96239.56;;;8.21;100.00
64610;BME280;51019;46.090;6.350;2023-11-21T02:14:08;96235.06;;;8.23;100.00
64610;BME280;51019;46.090;6.350;2023-11-21T02:16:38;96242.88;;;8.23;100.00
64610;BME280;51019;46.090;6.350;2023-11-21T02:19:07;96245.28;;;8.55;100.00
64610;BME280;51019;46.090;6.350;2023-11-21T02:21:38;96238.41;;;8.63;100.00
64610;BME280;51019;46.090;6.350;2023-11-21T02:24:09;96236.53;;;8.25;100.00
64610;BME280;51019;46.090;6.350;2023-11-21T02:26:39;96248.59;;;8.07;100.00
64610;BME280;51019;46.090;6.350;2023-11-21T02:29:06;96254.75;;;8.46;100.00
64610;BME280;51019;46.090;6.350;2023-11-21T02:31:36;96223.13;;;8.40;100.00
64610;BME280;51019;46.090;6.350;2023-11-21T02:34:13;96254.06;;;8.54;100.00
64610;BME280;51019;46.090;6.350;2023-11-21T02:36:40;96245.41;;;8.44;100.00
64610;BME280;51019;46.090;6.350;2023-11-21T02:39:11;96247.06;;;8.45;100.00
64610;BME280;51019;46.090;6.350;2023-11-21T02:41:39;96234.13;;;8.43;100.00
64610;BME280;51019;46.090;6.350;2023-11-21T02:44:07;96214.34;;;7.91;100.00
64610;BME280;51019;46.090;6.350;2023-11-21T02:46:35;96225.72;;;7.80;100.00
64610;BME280;51019;46.090;6.350;2023-11-21T02:49:04;96225.09;;;7.88;100.00
64610;BME280;51019;46.090;6.350;2023-11-21T02:51:32;96224.84;;;8.10;100.00
64610;BME280;51019;46.090;6.350;2023-11-21T02:54:00;96213.94;;;8.45;100.00
64610;BME280;51019;46.090;6.350;2023-11-21T02:56:33;96198.41;;;8.34;100.00
64610;BME280;51019;46.090;6.350;2023-11-21T02:59:00;96200.53;;;8.10;100.00
64610;BME280;51019;46.090;6.350;2023-11-21T03:01:28;96183.22;;;8.09;100.00
64610;BME280;51019;46.090;6.350;2023-11-21T03:03:56;96211.16;;;8.37;100.00
64610;BME280;51019;46.090;6.350;2023-11-21T03:06:24;96207.47;;;8.49;100.00
64610;BME280;51019;46.090;6.350;2023-11-21T03:08:51;96201.13;;;8.52;100.00
64610;BME280;51019;46.090;6.350;2023-11-21T03:11:18;96204.03;;;8.68;100.00
64610;BME280;51019;46.090;6.350;2023-11-21T03:13:48;96199.06;;;8.74;100.00
64610;BME280;51019;46.090;6.350;2023-11-21T03:16:16;96188.66;;;8.46;100.00
64610;BME280;51019;46.090;6.350;2023-11-21T03:18:45;96192.88;;;8.47;100.00
64610;BME280;51019;46.090;6.350;2023-11-21T03:21:12;96203.19;;;8.48;100.00
64610;BME280;51019;46.090;6.350;2023-11-21T03:23:39;96182.28;;;8.19;100.00
64610;BME280;51019;46.090;6.350;2023-11-21T03:26:06;96197.84;;;8.40;100.00
64610;BME280;51019;46.090;6.350;2023-11-21T03:28:38;96204.28;;;8.36;100.00
64610;BME280;51019;46.090;6.350;2023-11-21T03:31:08;96205.28;;;8.35;100.00
64610;BME280;51019;46.090;6.350;2023-11-21T03:33:36;96206.06;;;8.35;100.00
64610;BME280;51019;46.090;6.350;2023-11-21T03:36:03;96210.34;;;8.36;100.00
64610;BME280;51019;46.090;6.350;2023-11-21T03:38:33;96189.97;;;8.21;100.00
64610;BME280;51019;46.090;6.350;2023-11-21T03:41:01;96205.28;;;8.45;100.00
64610;BME280;51019;46.090;6.350;2023-11-21T03:43:28;96203.88;;;8.41;100.00
64610;BME280;51019;46.090;6.350;2023-11-21T03:45:56;96192.16;;;8.16;100.00
64610;BME280;51019;46.090;6.350;2023-11-21T03:48:25;96199.28;;;8.04;100.00
64610;BME280;51019;46.090;6.350;2023-11-21T03:50:52;96208.78;;;8.24;100.00
64610;BME280;51019;46.090;6.350;2023-11-21T03:53:19;96203.41;;;8.16;100.00
64610;BME280;51019;46.090;6.350;2023-11-21T03:55:47;96207.94;;;8.14;100.00
64610;BME280;51019;46.090;6.350;2023-11-21T03:58:16;96174.56;;;7.89;100.00
64610;BME280;51019;46.090;6.350;2023-11-21T04:00:44;96188.44;;;8.09;100.00
64610;BME280;51019;46.090;6.350;2023-11-21T04:03:11;96202.72;;;8.14;100.00
64610;BME280;51019;46.090;6.350;2023-11-21T04:05:42;96210.50;;;8.54;100.00
64610;BME280;51019;46.090;6.350;2023-11-21T04:08:11;96211.03;;;8.38;100.00
64610;BME280;51019;46.090;6.350;2023-11-21T04:10:39;96209.59;;;8.25;100.00
64610;BME280;51019;46.090;6.350;2023-11-21T04:13:07;96202.94;;;8.51;100.00
64610;BME280;51019;46.090;6.350;2023-11-21T04:15:36;96181.66;;;7.77;100.00
64610;BME280;51019;46.090;6.350;2023-11-21T04:18:03;96210.03;;;8.20;100.00
64610;BME280;51019;46.090;6.350;2023-11-21T04:20:30;96189.97;;;8.11;100.00
64610;BME280;51019;46.090;6.350;2023-11-21T04:22:59;96205.53;;;8.42;100.00
64610;BME280;51019;46.090;6.350;2023-11-21T04:25:26;96157.66;;;8.02;100.00
64610;BME280;51019;46.090;6.350;2023-11-21T04:27:54;96220.13;;;8.44;100.00
64610;BME280;51019;46.090;6.350;2023-11-21T04:30:21;96210.31;;;8.27;100.00
64610;BME280;51019;46.090;6.350;2023-11-21T04:32:48;96220.81;;;8.46;100.00
64610;BME280;51019;46.090;6.350;2023-11-21T04:35:16;96220.25;;;8.43;100.00
64610;BME280;51019;46.090;6.350;2023-11-21T04:37:43;96223.25;;;8.38;100.00
64610;BME280;51019;46.090;6.350;2023-11-21T04:40:14;96220.94;;;8.35;100.00
64610;BME280;51019;46.090;6.350;2023-11-21T04:42:41;96216.53;;;8.45;100.00
64610;BME280;51019;46.090;6.350;2023-11-21T04:45:09;96222.59;;;8.46;100.00
64610;BME280;51019;46.090;6.350;2023-11-21T04:47:37;96177.31;;;8.07;100.00
64610;BME280;51019;46.090;6.350;2023-11-21T04:50:05;96215.06;;;8.02;100.00
64610;BME280;51019;46.090;6.350;2023-11-21T04:52:32;96214.94;;;8.14;100.00
64610;BME280;51019;46.090;6.350;2023-11-21T04:54:59;96216.25;;;8.38;100.00
64610;BME280;51019;46.090;6.350;2023-11-21T04:57:29;96207.06;;;8.34;100.00
64610;BME280;51019;46.090;6.350;2023-11-21T04:59:56;96213.75;;;8.27;100.00
64610;BME280;51019;46.090;6.350;2023-11-21T05:02:23;96207.81;;;8.06;100.00
64610;BME280;51019;46.090;6.350;2023-11-21T05:04:50;96204.47;;;7.85;100.00
64610;BME280;51019;46.090;6.350;2023-11-21T05:07:17;96213.41;;;7.92;100.00
64610;BME280;51019;46.090;6.350;2023-11-21T05:09:44;96207.66;;;7.98;100.00
64610;BME280;51019;46.090;6.350;2023-11-21T05:12:11;96222.03;;;8.32;100.00
64610;BME280;51019;46.090;6.350;2023-11-21T05:14:41;96180.75;;;7.97;100.00
64610;BME280;51019;46.090;6.350;2023-11-21T05:17:08;96221.06;;;8.43;100.00
64610;BME280;51019;46.090;6.350;2023-11-21T05:19:35;96220.13;;;8.54;100.00
64610;BME280;51019;46.090;6.350;2023-11-21T05:22:03;96225.59;;;8.60;100.00
64610;BME280;51019;46.090;6.350;2023-11-21T05:24:31;96158.72;;;7.71;100.00
64610;BME280;51019;46.090;6.350;2023-11-21T05:26:58;96221.13;;;8.13;100.00
64610;BME280;51019;46.090;6.350;2023-11-21T05:29:25;96217.34;;;8.36;100.00
64610;BME280;51019;46.090;6.350;2023-11-21T05:31:54;96217.28;;;8.17;100.00
64610;BME280;51019;46.090;6.350;2023-11-21T05:34:21;96195.44;;;7.98;100.00
64610;BME280;51019;46.090;6.350;2023-11-21T05:36:49;96211.00;;;8.19;100.00
64610;BME280;51019;46.090;6.350;2023-11-21T05:39:16;96210.50;;;8.35;100.00
64610;BME280;51019;46.090;6.350;2023-11-21T05:41:45;96211.81;;;8.29;100.00
64610;BME280;51019;46.090;6.350;2023-11-21T05:44:12;96207.41;;;8.11;100.00
64610;BME280;51019;46.090;6.350;2023-11-21T05:46:39;96208.25;;;8.11;100.00
64610;BME280;51019;46.090;6.350;2023-11-21T05:49:10;96212.19;;;8.06;100.00
64610;BME280;51019;46.090;6.350;2023-11-21T05:51:37;96220.84;;;7.96;100.00
64610;BME280;51019;46.090;6.350;2023-11-21T05:54:07;96143.53;;;7.46;100.00
64610;BME280;51019;46.090;6.350;2023-11-21T05:56:34;96214.91;;;7.85;100.00
64610;BME280;51019;46.090;6.350;2023-11-21T05:59:01;96175.91;;;8.02;100.00
64610;BME280;51019;46.090;6.350;2023-11-21T06:01:28;96220.38;;;8.41;100.00
64610;BME280;51019;46.090;6.350;2023-11-21T06:03:55;96218.03;;;8.38;100.00
64610;BME280;51019;46.090;6.350;2023-11-21T06:06:24;96224.06;;;8.29;100.00
64610;BME280;51019;46.090;6.350;2023-11-21T06:08:52;96214.81;;;8.06;100.00
64610;BME280;51019;46.090;6.350;2023-11-21T06:11:19;96212.28;;;7.85;100.00
64610;BME280;51019;46.090;6.350;2023-11-21T06:13:45;96208.75;;;7.95;100.00
64610;BME280;51019;46.090;6.350;2023-11-21T06:16:13;96212.47;;;8.02;100.00
64610;BME280;51019;46.090;6.350;2023-11-21T06:18:45;96208.88;;;8.03;100.00
64610;BME280;51019;46.090;6.350;2023-11-21T06:21:12;96200.16;;;8.24;100.00
64610;BME280;51019;46.090;6.350;2023-11-21T06:23:46;96212.78;;;8.19;100.00
64610;BME280;51019;46.090;6.350;2023-11-21T06:26:13;96173.47;;;8.01;100.00
64610;BME280;51019;46.090;6.350;2023-11-21T06:28:41;96218.34;;;8.45;100.00
64610;BME280;51019;46.090;6.350;2023-11-21T06:31:11;96209.47;;;8.17;100.00
64610;BME280;51019;46.090;6.350;2023-11-21T06:33:39;96210.19;;;8.38;100.00
64610;BME280;51019;46.090;6.350;2023-11-21T06:36:12;96215.16;;;8.51;100.00
64610;BME280;51019;46.090;6.350;2023-11-21T06:38:39;96223.81;;;8.51;100.00
64610;BME280;51019;46.090;6.350;2023-11-21T06:41:08;96223.28;;;8.57;100.00
64610;BME280;51019;46.090;6.350;2023-11-21T06:43:36;96222.03;;;8.52;100.00
64610;BME280;51019;46.090;6.350;2023-11-21T06:46:04;96221.75;;;8.64;100.00
64610;BME280;51019;46.090;6.350;2023-11-21T06:48:31;96236.91;;;8.80;100.00
64610;BME280;51019;46.090;6.350;2023-11-21T06:50:59;96245.97;;;8.76;100.00
64610;BME280;51019;46.090;6.350;2023-11-21T06:53:26;96242.41;;;8.67;100.00
64610;BME280;51019;46.090;6.350;2023-11-21T06:55:55;96246.78;;;8.67;100.00
64610;BME280;51019;46.090;6.350;2023-11-21T06:58:24;96252.41;;;8.62;100.00
64610;BME280;51019;46.090;6.350;2023-11-21T07:00:52;96255.72;;;8.55;100.00
64610;BME280;51019;46.090;6.350;2023-11-21T07:03:19;96247.19;;;8.33;100.00
64610;BME280;51019;46.090;6.350;2023-11-21T07:05:47;96245.72;;;8.00;100.00
64610;BME280;51019;46.090;6.350;2023-11-21T07:08:14;96262.69;;;7.85;100.00
64610;BME280;51019;46.090;6.350;2023-11-21T07:10:41;96260.56;;;8.00;100.00
64610;BME280;51019;46.090;6.350;2023-11-21T07:13:10;96235.81;;;7.94;100.00
64610;BME280;51019;46.090;6.350;2023-11-21T07:15:39;96255.50;;;8.18;100.00
64610;BME280;51019;46.090;6.350;2023-11-21T07:18:07;96257.41;;;8.16;100.00
64610;BME280;51019;46.090;6.350;2023-11-21T07:20:34;96239.13;;;8.16;100.00
64610;BME280;51019;46.090;6.350;2023-11-21T07:23:02;96256.81;;;8.33;100.00
64610;BME280;51019;46.090;6.350;2023-11-21T07:25:31;96260.94;;;8.45;100.00
64610;BME280;51019;46.090;6.350;2023-11-21T07:27:59;96260.38;;;8.42;100.00
64610;BME280;51019;46.090;6.350;2023-11-21T07:30:27;96257.03;;;8.30;100.00
64610;BME280;51019;46.090;6.350;2023-11-21T07:32:57;96255.25;;;8.30;100.00
64610;BME280;51019;46.090;6.350;2023-11-21T07:35:26;96259.22;;;8.25;100.00
64610;BME280;51019;46.090;6.350;2023-11-21T07:37:53;96256.00;;;8.52;100.00
64610;BME280;51019;46.090;6.350;2023-11-21T07:40:23;96259.13;;;8.36;100.00
64610;BME280;51019;46.090;6.350;2023-11-21T07:42:52;96238.44;;;8.14;100.00
64610;BME280;51019;46.090;6.350;2023-11-21T07:45:19;96226.63;;;8.10;100.00
64610;BME280;51019;46.090;6.350;2023-11-21T07:47:48;96260.13;;;8.45;100.00
64610;BME280;51019;46.090;6.350;2023-11-21T07:50:17;96271.22;;;8.47;100.00
64610;BME280;51019;46.090;6.350;2023-11-21T07:52:45;96270.69;;;8.53;100.00
64610;BME280;51019;46.090;6.350;2023-11-21T07:55:15;96265.63;;;8.51;100.00
64610;BME280;51019;46.090;6.350;2023-11-21T07:57:43;96257.78;;;8.51;100.00
64610;BME280;51019;46.090;6.350;2023-11-21T08:00:12;96259.44;;;8.52;100.00
64610;BME280;51019;46.090;6.350;2023-11-21T08:02:41;96257.78;;;8.51;100.00
64610;BME280;51019;46.090;6.350;2023-11-21T08:05:11;96258.72;;;8.60;100.00
64610;BME280;51019;46.090;6.350;2023-11-21T08:07:42;96254.47;;;8.49;100.00
64610;BME280;51019;46.090;6.350;2023-11-21T08:10:10;96259.44;;;8.62;100.00
64610;BME280;51019;46.090;6.350;2023-11-21T08:12:38;96258.91;;;8.78;100.00
64610;BME280;51019;46.090;6.350;2023-11-21T08:15:07;96260.91;;;9.03;100.00
64610;BME280;51019;46.090;6.350;2023-11-21T08:17:35;96248.56;;;8.86;100.00
64610;BME280;51019;46.090;6.350;2023-11-21T08:20:05;96263.81;;;8.81;100.00
64610;BME280;51019;46.090;6.350;2023-11-21T08:22:34;96263.25;;;9.16;100.00
64610;BME280;51019;46.090;6.350;2023-11-21T08:25:04;96265.34;;;9.02;100.00
64610;BME280;51019;46.090;6.350;2023-11-21T08:27:31;96265.75;;;8.98;100.00
64610;BME280;51019;46.090;6.350;2023-11-21T08:30:00;96260.53;;;8.98;100.00
64610;BME280;51019;46.090;6.350;2023-11-21T08:32:29;96228.50;;;8.77;100.00
64610;BME280;51019;46.090;6.350;2023-11-21T08:34:59;96267.00;;;8.74;100.00
64610;BME280;51019;46.090;6.350;2023-11-21T08:37:26;96259.69;;;9.07;100.00
64610;BME280;51019;46.090;6.350;2023-11-21T08:39:58;96251.44;;;8.83;100.00
64610;BME280;51019;46.090;6.350;2023-11-21T08:42:27;96263.25;;;9.06;100.00
64610;BME280;51019;46.090;6.350;2023-11-21T08:44:55;96266.28;;;9.21;100.00
64610;BME280;51019;46.090;6.350;2023-11-21T08:47:23;96269.06;;;9.00;100.00
64610;BME280;51019;46.090;6.350;2023-11-21T08:49:51;96263.25;;;9.06;100.00
64610;BME280;51019;46.090;6.350;2023-11-21T08:52:20;96264.88;;;9.36;100.00
64610;BME280;51019;46.090;6.350;2023-11-21T08:54:48;96239.63;;;8.98;100.00
64610;BME280;51019;46.090;6.350;2023-11-21T08:57:21;96260.78;;;9.24;100.00
64610;BME280;51019;46.090;6.350;2023-11-21T08:59:54;96259.34;;;9.39;100.00
64610;BME280;51019;46.090;6.350;2023-11-21T09:02:22;96252.72;;;9.44;100.00
64610;BME280;51019;46.090;6.350;2023-11-21T09:04:49;96231.88;;;9.25;100.00
64610;BME280;51019;46.090;6.350;2023-11-21T09:07:18;96255.63;;;9.41;100.00
64610;BME280;51019;46.090;6.350;2023-11-21T09:09:45;96260.19;;;9.30;100.00
64610;BME280;51019;46.090;6.350;2023-11-21T09:12:14;96264.22;;;9.24;100.00
64610;BME280;51019;46.090;6.350;2023-11-21T09:14:44;96265.59;;;9.09;100.00
64610;BME280;51019;46.090;6.350;2023-11-21T09:17:13;96255.28;;;9.07;100.00
64610;BME280;51019;46.090;6.350;2023-11-21T09:19:40;96264.59;;;9.29;100.00
64610;BME280;51019;46.090;6.350;2023-11-21T09:22:09;96259.06;;;9.42;100.00
64610;BME280;51019;46.090;6.350;2023-11-21T09:24:36;96259.88;;;9.42;100.00
64610;BME280;51019;46.090;6.350;2023-11-21T09:27:03;96265.19;;;9.60;100.00
64610;BME280;51019;46.090;6.350;2023-11-21T09:29:31;96267.16;;;9.58;100.00
64610;BME280;51019;46.090;6.350;2023-11-21T09:31:59;96268.81;;;9.87;100.00
64610;BME280;51019;46.090;6.350;2023-11-21T09:34:28;96256.59;;;10.05;100.00
64610;BME280;51019;46.090;6.350;2023-11-21T09:36:56;96273.44;;;10.30;100.00
64610;BME280;51019;46.090;6.350;2023-11-21T09:39:23;96271.59;;;9.85;100.00
64610;BME280;51019;46.090;6.350;2023-11-21T09:41:53;96270.25;;;9.81;100.00
64610;BME280;51019;46.090;6.350;2023-11-21T09:44:34;96273.97;;;9.78;100.00
64610;BME280;51019;46.090;6.350;2023-11-21T09:47:02;96265.38;;;9.86;100.00
64610;BME280;51019;46.090;6.350;2023-11-21T09:49:36;96268.31;;;10.10;100.00
64610;BME280;51019;46.090;6.350;2023-11-21T09:52:08;96267.38;;;10.02;100.00
64610;BME280;51019;46.090;6.350;2023-11-21T09:54:37;96268.41;;;9.91;100.00
64610;BME280;51019;46.090;6.350;2023-11-21T09:57:05;96269.88;;;9.94;100.00
64610;BME280;51019;46.090;6.350;2023-11-21T09:59:37;96257.94;;;9.91;100.00
64610;BME280;51019;46.090;6.350;2023-11-21T10:02:07;96227.69;;;9.79;100.00
64610;BME280;51019;46.090;6.350;2023-11-21T10:04:41;96226.19;;;10.04;100.00
64610;BME280;51019;46.090;6.350;2023-11-21T10:07:11;96258.72;;;10.29;100.00
64610;BME280;51019;46.090;6.350;2023-11-21T10:09:41;96243.47;;;10.42;100.00
64610;BME280;51019;46.090;6.350;2023-11-21T10:12:11;96250.25;;;10.07;100.00
64610;BME280;51019;46.090;6.350;2023-11-21T10:14:43;96254.44;;;10.28;100.00
64610;BME280;51019;46.090;6.350;2023-11-21T10:17:18;96253.50;;;10.46;100.00
64610;BME280;51019;46.090;6.350;2023-11-21T10:19:47;96250.97;;;10.37;100.00
64610;BME280;51019;46.090;6.350;2023-11-21T10:22:15;96255.16;;;11.01;100.00
64610;BME280;51019;46.090;6.350;2023-11-21T10:24:45;96259.13;;;11.05;100.00
64610;BME280;51019;46.090;6.350;2023-11-21T10:27:13;96250.63;;;11.11;100.00
64610;BME280;51019;46.090;6.350;2023-11-21T10:29:42;96235.41;;;11.40;100.00
64610;BME280;51019;46.090;6.350;2023-11-21T10:32:12;96237.84;;;12.35;100.00
64610;BME280;51019;46.090;6.350;2023-11-21T10:34:40;96241.50;;;11.75;100.00
64610;BME280;51019;46.090;6.350;2023-11-21T10:37:15;96241.22;;;12.20;100.00
64610;BME280;51019;46.090;6.350;2023-11-21T10:39:43;96239.72;;;12.92;100.00
64610;BME280;51019;46.090;6.350;2023-11-21T10:42:12;96240.91;;;12.97;100.00
64610;BME280;51019;46.090;6.350;2023-11-21T10:44:41;96218.56;;;12.11;100.00
64610;BME280;51019;46.090;6.350;2023-11-21T10:47:10;96229.00;;;12.53;100.00
64610;BME280;51019;46.090;6.350;2023-11-21T10:49:39;96238.88;;;12.00;100.00
64610;BME280;51019;46.090;6.350;2023-11-21T10:52:08;96244.50;;;13.21;100.00
64610;BME280;51019;46.090;6.350;2023-11-21T10:54:45;96223.25;;;12.65;100.00
64610;BME280;51019;46.090;6.350;2023-11-21T10:57:17;96229.28;;;12.33;100.00
64610;BME280;51019;46.090;6.350;2023-11-21T10:59:47;96228.69;;;12.48;100.00
64610;BME280;51019;46.090;6.350;2023-11-21T11:02:23;96231.50;;;12.04;100.00
64610;BME280;51019;46.090;6.350;2023-11-21T11:04:53;96218.47;;;11.86;100.00
64610;BME280;51019;46.090;6.350;2023-11-21T11:07:26;96223.41;;;12.48;100.00
64610;BME280;51019;46.090;6.350;2023-11-21T11:09:58;96223.88;;;12.35;100.00
64610;BME280;51019;46.090;6.350;2023-11-21T11:12:27;96217.72;;;12.02;100.00
64610;BME280;51019;46.090;6.350;2023-11-21T11:14:55;96212.81;;;12.07;100.00
64610;BME280;51019;46.090;6.350;2023-11-21T11:17:25;96210.28;;;11.63;100.00
64610;BME280;51019;46.090;6.350;2023-11-21T11:19:53;96213.91;;;11.96;100.00
64610;BME280;51019;46.090;6.350;2023-11-21T11:22:31;96212.75;;;11.91;100.00
64610;BME280;51019;46.090;6.350;2023-11-21T11:25:25;96206.91;;;12.05;100.00
64610;BME280;51019;46.090;6.350;2023-11-21T11:28:04;96206.91;;;12.13;100.00
64610;BME280;51019;46.090;6.350;2023-11-21T11:30:41;96187.63;;;11.88;100.00
64610;BME280;51019;46.090;6.350;2023-11-21T11:33:25;96178.84;;;12.14;100.00
64610;BME280;51019;46.090;6.350;2023-11-21T11:36:03;96195.94;;;12.26;100.00
64610;BME280;51019;46.090;6.350;2023-11-21T11:38:31;96191.97;;;12.06;100.00
64610;BME280;51019;46.090;6.350;2023-11-21T11:41:02;96166.25;;;12.66;100.00
64610;BME280;51019;46.090;6.350;2023-11-21T11:43:30;96200.53;;;15.08;94.75
64610;BME280;51019;46.090;6.350;2023-11-21T11:45:58;96177.19;;;15.20;83.46
64610;BME280;51019;46.090;6.350;2023-11-21T11:48:29;96189.66;;;14.88;85.05
64610;BME280;51019;46.090;6.350;2023-11-21T11:51:04;96190.41;;;14.97;84.90
64610;BME280;51019;46.090;6.350;2023-11-21T11:53:38;96183.16;;;14.76;87.06
64610;BME280;51019;46.090;6.350;2023-11-21T11:56:26;96199.28;;;13.25;97.53
64610;BME280;51019;46.090;6.350;2023-11-21T11:58:57;96163.72;;;13.54;89.25
64610;BME280;51019;46.090;6.350;2023-11-21T12:01:27;96193.19;;;13.33;95.23
64610;BME280;51019;46.090;6.350;2023-11-21T12:04:26;96193.16;;;12.27;99.39
64610;BME280;51019;46.090;6.350;2023-11-21T12:07:02;96200.06;;;12.28;100.00
64610;BME280;51019;46.090;6.350;2023-11-21T12:09:31;96188.53;;;11.45;100.00
64610;BME280;51019;46.090;6.350;2023-11-21T12:12:02;96200.22;;;12.19;100.00
64610;BME280;51019;46.090;6.350;2023-11-21T12:14:31;96171.03;;;11.54;100.00
64610;BME280;51019;46.090;6.350;2023-11-21T12:17:00;96178.16;;;11.70;100.00
64610;BME280;51019;46.090;6.350;2023-11-21T12:19:28;96185.91;;;11.45;100.00
64610;BME280;51019;46.090;6.350;2023-11-21T12:22:00;96188.13;;;11.58;100.00
64610;BME280;51019;46.090;6.350;2023-11-21T12:24:27;96182.28;;;11.72;100.00
64610;BME280;51019;46.090;6.350;2023-11-21T12:26:54;96183.69;;;11.84;100.00
64610;BME280;51019;46.090;6.350;2023-11-21T12:29:23;96186.50;;;11.65;100.00
64610;BME280;51019;46.090;6.350;2023-11-21T12:31:50;96180.44;;;11.64;100.00
64610;BME280;51019;46.090;6.350;2023-11-21T12:34:18;96177.69;;;11.40;100.00
64610;BME280;51019;46.090;6.350;2023-11-21T12:36:49;96176.81;;;11.65;100.00
64610;BME280;51019;46.090;6.350;2023-11-21T12:39:19;96170.34;;;11.44;100.00
64610;BME280;51019;46.090;6.350;2023-11-21T12:41:48;96206.66;;;11.05;100.00
64610;BME280;51019;46.090;6.350;2023-11-21T12:44:16;96196.16;;;10.43;100.00
64610;BME280;51019;46.090;6.350;2023-11-21T12:46:45;96155.09;;;10.16;100.00
64610;BME280;51019;46.090;6.350;2023-11-21T12:49:14;96202.50;;;10.76;100.00
64610;BME280;51019;46.090;6.350;2023-11-21T12:51:44;96205.75;;;10.96;100.00
64610;BME280;51019;46.090;6.350;2023-11-21T12:54:13;96201.81;;;10.92;100.00
64610;BME280;51019;46.090;6.350;2023-11-21T12:56:41;96211.44;;;10.83;100.00
64610;BME280;51019;46.090;6.350;2023-11-21T12:59:13;96195.09;;;10.54;100.00
64610;BME280;51019;46.090;6.350;2023-11-21T13:01:42;96199.38;;;10.55;100.00
64610;BME280;51019;46.090;6.350;2023-11-21T13:04:10;96206.94;;;10.40;100.00
64610;BME280;51019;46.090;6.350;2023-11-21T13:06:38;96147.25;;;10.16;100.00